sensor_id;sensor_type;location;lat;lon;timestamp;P1;durP1;ratioP1;P2;durP2;ratioP2
76053;SDS011;64752;48.870;9.082;2023-02-12T00:02:14;42.05;;;27.23;;
76053;SDS011;64752;48.870;9.082;2023-02-12T00:04:40;40.13;;;27.52;;
76053;SDS011;64752;48.870;9.082;2023-02-12T00:07:05;40.40;;;27.08;;
76053;SDS011;64752;48.870;9.082;2023-02-12T00:09:30;41.63;;;29.42;;
76053;SDS011;64752;48.870;9.082;2023-02-12T00:11:55;42.50;;;28.67;;
76053;SDS011;64752;48.870;9.082;2023-02-12T00:14:21;42.47;;;29.70;;
76053;SDS011;64752;48.870;9.082;2023-02-12T00:16:46;39.95;;;27.55;;
76053;SDS011;64752;48.870;9.082;2023-02-12T00:19:11;41.67;;;26.70;;
76053;SDS011;64752;48.870;9.082;2023-02-12T00:21:36;40.63;;;28.80;;
76053;SDS011;64752;48.870;9.082;2023-02-12T00:24:02;41.22;;;28.08;;
76053;SDS011;64752;48.870;9.082;2023-02-12T00:26:27;37.88;;;27.25;;
76053;SDS011;64752;48.870;9.082;2023-02-12T00:28:53;44.72;;;28.33;;
76053;SDS011;64752;48.870;9.082;2023-02-12T00:31:20;38.13;;;27.00;;
76053;SDS011;64752;48.870;9.082;2023-02-12T00:33:45;40.45;;;26.98;;
76053;SDS011;64752;48.870;9.082;2023-02-12T00:36:13;39.78;;;27.42;;
76053;SDS011;64752;48.870;9.082;2023-02-12T00:38:39;36.55;;;28.13;;
76053;SDS011;64752;48.870;9.082;2023-02-12T00:41:04;38.42;;;27.50;;
76053;SDS011;64752;48.870;9.082;2023-02-12T00:43:29;36.35;;;27.40;;
76053;SDS011;64752;48.870;9.082;2023-02-12T00:45:54;41.22;;;28.67;;
76053;SDS011;64752;48.870;9.082;2023-02-12T00:48:20;39.00;;;28.25;;
76053;SDS011;64752;48.870;9.082;2023-02-12T00:50:45;43.17;;;28.73;;
76053;SDS011;64752;48.870;9.082;2023-02-12T00:53:11;42.58;;;27.80;;
76053;SDS011;64752;48.870;9.082;2023-02-12T00:55:36;40.55;;;28.60;;
76053;SDS011;64752;48.870;9.082;2023-02-12T00:58:02;41.03;;;28.83;;
76053;SDS011;64752;48.870;9.082;2023-02-12T01:00:27;41.83;;;29.05;;
76053;SDS011;64752;48.870;9.082;2023-02-12T01:02:52;42.80;;;28.63;;
76053;SDS011;64752;48.870;9.082;2023-02-12T01:05:18;43.38;;;29.35;;
76053;SDS011;64752;48.870;9.082;2023-02-12T01:07:43;42.13;;;29.40;;
76053;SDS011;64752;48.870;9.082;2023-02-12T01:10:12;42.60;;;28.75;;
76053;SDS011;64752;48.870;9.082;2023-02-12T01:12:38;40.35;;;29.23;;
76053;SDS011;64752;48.870;9.082;2023-02-12T01:15:03;46.30;;;29.35;;
76053;SDS011;64752;48.870;9.082;2023-02-12T01:17:28;44.38;;;29.67;;
76053;SDS011;64752;48.870;9.082;2023-02-12T01:19:57;41.28;;;29.20;;
76053;SDS011;64752;48.870;9.082;2023-02-12T01:22:22;42.28;;;29.13;;
76053;SDS011;64752;48.870;9.082;2023-02-12T01:24:47;43.65;;;30.23;;
76053;SDS011;64752;48.870;9.082;2023-02-12T01:27:13;40.70;;;28.58;;
76053;SDS011;64752;48.870;9.082;2023-02-12T01:29:39;42.53;;;29.10;;
76053;SDS011;64752;48.870;9.082;2023-02-12T01:32:08;39.00;;;28.33;;
76053;SDS011;64752;48.870;9.082;2023-02-12T01:34:33;40.75;;;28.40;;
76053;SDS011;64752;48.870;9.082;2023-02-12T01:36:58;38.25;;;28.55;;
76053;SDS011;64752;48.870;9.082;2023-02-12T01:39:24;43.35;;;29.20;;
76053;SDS011;64752;48.870;9.082;2023-02-12T01:41:49;39.95;;;28.30;;
76053;SDS011;64752;48.870;9.082;2023-02-12T01:46:39;43.05;;;28.55;;
76053;SDS011;64752;48.870;9.082;2023-02-12T01:49:06;39.05;;;28.00;;
76053;SDS011;64752;48.870;9.082;2023-02-12T01:51:32;40.38;;;28.20;;
76053;SDS011;64752;48.870;9.082;2023-02-12T01:53:59;44.30;;;28.88;;
76053;SDS011;64752;48.870;9.082;2023-02-12T01:56:26;42.22;;;28.55;;
76053;SDS011;64752;48.870;9.082;2023-02-12T01:58:51;40.90;;;27.60;;
76053;SDS011;64752;48.870;9.082;2023-02-12T02:01:19;42.03;;;28.58;;
76053;SDS011;64752;48.870;9.082;2023-02-12T02:03:46;42.25;;;27.42;;
76053;SDS011;64752;48.870;9.082;2023-02-12T02:06:15;40.67;;;26.48;;
76053;SDS011;64752;48.870;9.082;2023-02-12T02:08:40;41.97;;;28.35;;
76053;SDS011;64752;48.870;9.082;2023-02-12T02:11:06;41.65;;;26.90;;
76053;SDS011;64752;48.870;9.082;2023-02-12T02:13:51;40.75;;;26.55;;
76053;SDS011;64752;48.870;9.082;2023-02-12T02:16:36;42.15;;;27.25;;
76053;SDS011;64752;48.870;9.082;2023-02-12T02:19:26;41.08;;;27.02;;
76053;SDS011;64752;48.870;9.082;2023-02-12T02:24:39;39.20;;;26.50;;
76053;SDS011;64752;48.870;9.082;2023-02-12T02:32:23;38.63;;;27.08;;
76053;SDS011;64752;48.870;9.082;2023-02-12T02:37:17;38.00;;;27.50;;
76053;SDS011;64752;48.870;9.082;2023-02-12T02:44:53;38.28;;;27.38;;
76053;SDS011;64752;48.870;9.082;2023-02-12T02:47:19;40.72;;;28.23;;
76053;SDS011;64752;48.870;9.082;2023-02-12T02:52:11;41.88;;;26.75;;
76053;SDS011;64752;48.870;9.082;2023-02-12T02:54:42;39.63;;;27.60;;
76053;SDS011;64752;48.870;9.082;2023-02-12T02:57:11;40.97;;;29.38;;
76053;SDS011;64752;48.870;9.082;2023-02-12T02:59:39;40.47;;;28.23;;
76053;SDS011;64752;48.870;9.082;2023-02-12T03:02:14;42.88;;;29.05;;
76053;SDS011;64752;48.870;9.082;2023-02-12T03:04:44;41.58;;;29.30;;
76053;SDS011;64752;48.870;9.082;2023-02-12T03:07:15;45.03;;;29.50;;
76053;SDS011;64752;48.870;9.082;2023-02-12T03:12:44;38.10;;;26.75;;
76053;SDS011;64752;48.870;9.082;2023-02-12T03:15:19;39.80;;;27.70;;
76053;SDS011;64752;48.870;9.082;2023-02-12T03:17:46;41.85;;;27.83;;
76053;SDS011;64752;48.870;9.082;2023-02-12T03:20:13;41.55;;;29.73;;
76053;SDS011;64752;48.870;9.082;2023-02-12T03:22:40;40.47;;;28.73;;
76053;SDS011;64752;48.870;9.082;2023-02-12T03:25:13;42.58;;;29.33;;
76053;SDS011;64752;48.870;9.082;2023-02-12T03:27:43;38.92;;;27.98;;
76053;SDS011;64752;48.870;9.082;2023-02-12T03:30:10;40.42;;;28.42;;
76053;SDS011;64752;48.870;9.082;2023-02-12T03:37:32;41.08;;;27.67;;
76053;SDS011;64752;48.870;9.082;2023-02-12T03:44:53;36.58;;;26.75;;
76053;SDS011;64752;48.870;9.082;2023-02-12T03:47:36;37.00;;;26.88;;
76053;SDS011;64752;48.870;9.082;2023-02-12T03:50:14;36.58;;;27.23;;
76053;SDS011;64752;48.870;9.082;2023-02-12T03:52:41;41.53;;;27.73;;
76053;SDS011;64752;48.870;9.082;2023-02-12T03:55:07;38.10;;;27.30;;
76053;SDS011;64752;48.870;9.082;2023-02-12T03:57:33;37.45;;;26.65;;
76053;SDS011;64752;48.870;9.082;2023-02-12T04:00:04;38.15;;;26.88;;
76053;SDS011;64752;48.870;9.082;2023-02-12T04:02:29;40.78;;;26.35;;
76053;SDS011;64752;48.870;9.082;2023-02-12T04:04:54;39.70;;;26.45;;
76053;SDS011;64752;48.870;9.082;2023-02-12T04:07:20;39.80;;;27.58;;
76053;SDS011;64752;48.870;9.082;2023-02-12T04:09:45;37.92;;;26.58;;
76053;SDS011;64752;48.870;9.082;2023-02-12T04:12:25;37.53;;;26.88;;
76053;SDS011;64752;48.870;9.082;2023-02-12T04:20:06;40.88;;;28.25;;
76053;SDS011;64752;48.870;9.082;2023-02-12T04:27:41;43.20;;;28.10;;
76053;SDS011;64752;48.870;9.082;2023-02-12T04:32:37;44.05;;;28.77;;
76053;SDS011;64752;48.870;9.082;2023-02-12T04:37:38;39.78;;;27.38;;
76053;SDS011;64752;48.870;9.082;2023-02-12T04:40:07;39.60;;;28.13;;
76053;SDS011;64752;48.870;9.082;2023-02-12T04:42:43;42.38;;;29.23;;
76053;SDS011;64752;48.870;9.082;2023-02-12T04:45:09;39.53;;;27.27;;
76053;SDS011;64752;48.870;9.082;2023-02-12T04:47:35;43.13;;;29.25;;
76053;SDS011;64752;48.870;9.082;2023-02-12T04:50:01;40.22;;;28.02;;
76053;SDS011;64752;48.870;9.082;2023-02-12T04:52:26;40.28;;;28.90;;
76053;SDS011;64752;48.870;9.082;2023-02-12T04:54:51;40.72;;;27.33;;
76053;SDS011;64752;48.870;9.082;2023-02-12T04:57:16;40.53;;;27.95;;
76053;SDS011;64752;48.870;9.082;2023-02-12T04:59:41;39.42;;;29.02;;
76053;SDS011;64752;48.870;9.082;2023-02-12T05:02:07;43.03;;;28.70;;
76053;SDS011;64752;48.870;9.082;2023-02-12T05:04:32;40.50;;;27.88;;
76053;SDS011;64752;48.870;9.082;2023-02-12T05:06:57;40.10;;;28.08;;
76053;SDS011;64752;48.870;9.082;2023-02-12T05:09:22;42.95;;;27.95;;
76053;SDS011;64752;48.870;9.082;2023-02-12T05:11:48;40.28;;;28.58;;
76053;SDS011;64752;48.870;9.082;2023-02-12T05:14:13;48.85;;;31.02;;
76053;SDS011;64752;48.870;9.082;2023-02-12T05:16:38;42.17;;;30.60;;
76053;SDS011;64752;48.870;9.082;2023-02-12T05:19:03;40.83;;;28.83;;
76053;SDS011;64752;48.870;9.082;2023-02-12T05:21:29;41.22;;;28.23;;
76053;SDS011;64752;48.870;9.082;2023-02-12T05:23:54;41.92;;;28.58;;
76053;SDS011;64752;48.870;9.082;2023-02-12T05:26:20;40.78;;;29.42;;
76053;SDS011;64752;48.870;9.082;2023-02-12T05:28:46;42.95;;;29.10;;
76053;SDS011;64752;48.870;9.082;2023-02-12T05:31:16;44.53;;;29.23;;
76053;SDS011;64752;48.870;9.082;2023-02-12T05:33:42;42.92;;;29.42;;
76053;SDS011;64752;48.870;9.082;2023-02-12T05:36:09;40.30;;;29.23;;
76053;SDS011;64752;48.870;9.082;2023-02-12T05:41:01;40.43;;;29.13;;
76053;SDS011;64752;48.870;9.082;2023-02-12T05:43:26;39.22;;;28.27;;
76053;SDS011;64752;48.870;9.082;2023-02-12T05:45:51;43.80;;;29.95;;
76053;SDS011;64752;48.870;9.082;2023-02-12T05:48:16;43.47;;;29.33;;
76053;SDS011;64752;48.870;9.082;2023-02-12T05:50:41;40.95;;;29.70;;
76053;SDS011;64752;48.870;9.082;2023-02-12T05:53:07;42.20;;;29.77;;
76053;SDS011;64752;48.870;9.082;2023-02-12T05:55:32;40.53;;;29.15;;
76053;SDS011;64752;48.870;9.082;2023-02-12T05:58:00;40.35;;;28.63;;
76053;SDS011;64752;48.870;9.082;2023-02-12T06:00:35;44.85;;;28.75;;
76053;SDS011;64752;48.870;9.082;2023-02-12T06:03:01;39.97;;;28.92;;
76053;SDS011;64752;48.870;9.082;2023-02-12T06:05:26;41.75;;;28.85;;
76053;SDS011;64752;48.870;9.082;2023-02-12T06:07:51;43.80;;;29.15;;
76053;SDS011;64752;48.870;9.082;2023-02-12T06:10:16;40.63;;;28.30;;
76053;SDS011;64752;48.870;9.082;2023-02-12T06:12:42;42.80;;;28.30;;
76053;SDS011;64752;48.870;9.082;2023-02-12T06:15:07;40.08;;;28.48;;
76053;SDS011;64752;48.870;9.082;2023-02-12T06:17:32;40.38;;;28.60;;
76053;SDS011;64752;48.870;9.082;2023-02-12T06:19:58;38.45;;;27.13;;
76053;SDS011;64752;48.870;9.082;2023-02-12T06:22:23;43.25;;;28.15;;
76053;SDS011;64752;48.870;9.082;2023-02-12T06:24:48;43.53;;;28.92;;
76053;SDS011;64752;48.870;9.082;2023-02-12T06:27:13;41.60;;;28.98;;
76053;SDS011;64752;48.870;9.082;2023-02-12T06:29:39;39.40;;;29.70;;
76053;SDS011;64752;48.870;9.082;2023-02-12T06:32:04;45.85;;;31.02;;
76053;SDS011;64752;48.870;9.082;2023-02-12T06:34:32;43.67;;;30.00;;
76053;SDS011;64752;48.870;9.082;2023-02-12T06:36:57;43.53;;;29.88;;
76053;SDS011;64752;48.870;9.082;2023-02-12T06:39:22;40.53;;;28.65;;
76053;SDS011;64752;48.870;9.082;2023-02-12T06:41:47;45.95;;;28.95;;
76053;SDS011;64752;48.870;9.082;2023-02-12T06:44:13;43.03;;;29.33;;
76053;SDS011;64752;48.870;9.082;2023-02-12T06:46:38;41.35;;;28.33;;
76053;SDS011;64752;48.870;9.082;2023-02-12T06:49:03;40.30;;;29.27;;
76053;SDS011;64752;48.870;9.082;2023-02-12T06:51:28;42.72;;;29.42;;
76053;SDS011;64752;48.870;9.082;2023-02-12T06:53:55;48.17;;;31.48;;
76053;SDS011;64752;48.870;9.082;2023-02-12T06:56:21;40.03;;;29.02;;
76053;SDS011;64752;48.870;9.082;2023-02-12T06:58:50;43.55;;;29.88;;
76053;SDS011;64752;48.870;9.082;2023-02-12T07:01:17;41.90;;;28.02;;
76053;SDS011;64752;48.870;9.082;2023-02-12T07:03:47;40.65;;;28.08;;
76053;SDS011;64752;48.870;9.082;2023-02-12T07:06:12;42.45;;;28.85;;
76053;SDS011;64752;48.870;9.082;2023-02-12T07:08:38;35.50;;;26.05;;
76053;SDS011;64752;48.870;9.082;2023-02-12T07:11:04;47.17;;;27.63;;
76053;SDS011;64752;48.870;9.082;2023-02-12T07:13:29;40.42;;;27.52;;
76053;SDS011;64752;48.870;9.082;2023-02-12T07:15:54;40.95;;;28.13;;
76053;SDS011;64752;48.870;9.082;2023-02-12T07:18:19;40.20;;;28.92;;
76053;SDS011;64752;48.870;9.082;2023-02-12T07:20:45;40.05;;;27.35;;
76053;SDS011;64752;48.870;9.082;2023-02-12T07:23:10;41.45;;;27.75;;
76053;SDS011;64752;48.870;9.082;2023-02-12T07:25:36;41.25;;;28.42;;
76053;SDS011;64752;48.870;9.082;2023-02-12T07:28:01;39.00;;;27.83;;
76053;SDS011;64752;48.870;9.082;2023-02-12T07:30:26;42.47;;;28.60;;
76053;SDS011;64752;48.870;9.082;2023-02-12T07:32:52;40.63;;;27.02;;
76053;SDS011;64752;48.870;9.082;2023-02-12T07:35:17;37.17;;;27.15;;
76053;SDS011;64752;48.870;9.082;2023-02-12T07:37:42;37.78;;;26.20;;
76053;SDS011;64752;48.870;9.082;2023-02-12T07:40:12;38.17;;;26.58;;
76053;SDS011;64752;48.870;9.082;2023-02-12T07:42:38;35.78;;;26.55;;
76053;SDS011;64752;48.870;9.082;2023-02-12T07:45:03;35.80;;;26.42;;
76053;SDS011;64752;48.870;9.082;2023-02-12T07:47:29;40.58;;;26.35;;
76053;SDS011;64752;48.870;9.082;2023-02-12T07:49:54;36.28;;;27.35;;
76053;SDS011;64752;48.870;9.082;2023-02-12T07:52:19;38.25;;;26.85;;
76053;SDS011;64752;48.870;9.082;2023-02-12T07:54:44;36.15;;;26.23;;
76053;SDS011;64752;48.870;9.082;2023-02-12T07:57:10;39.80;;;27.15;;
76053;SDS011;64752;48.870;9.082;2023-02-12T07:59:35;36.72;;;25.17;;
76053;SDS011;64752;48.870;9.082;2023-02-12T08:02:00;36.22;;;25.23;;
76053;SDS011;64752;48.870;9.082;2023-02-12T08:04:25;36.42;;;25.85;;
76053;SDS011;64752;48.870;9.082;2023-02-12T08:06:52;38.42;;;26.40;;
76053;SDS011;64752;48.870;9.082;2023-02-12T08:09:19;38.17;;;26.00;;
76053;SDS011;64752;48.870;9.082;2023-02-12T08:11:45;34.47;;;25.90;;
76053;SDS011;64752;48.870;9.082;2023-02-12T08:14:11;37.97;;;26.75;;
76053;SDS011;64752;48.870;9.082;2023-02-12T08:16:37;37.07;;;27.23;;
76053;SDS011;64752;48.870;9.082;2023-02-12T08:19:03;35.85;;;27.42;;
76053;SDS011;64752;48.870;9.082;2023-02-12T08:21:28;41.63;;;27.10;;
76053;SDS011;64752;48.870;9.082;2023-02-12T08:23:54;42.30;;;28.13;;
76053;SDS011;64752;48.870;9.082;2023-02-12T08:26:23;38.08;;;27.25;;
76053;SDS011;64752;48.870;9.082;2023-02-12T08:28:53;40.15;;;28.30;;
76053;SDS011;64752;48.870;9.082;2023-02-12T08:31:20;38.33;;;26.88;;
76053;SDS011;64752;48.870;9.082;2023-02-12T08:33:46;37.63;;;27.23;;
76053;SDS011;64752;48.870;9.082;2023-02-12T08:36:13;36.47;;;27.50;;
76053;SDS011;64752;48.870;9.082;2023-02-12T08:38:39;37.50;;;27.95;;
76053;SDS011;64752;48.870;9.082;2023-02-12T08:41:07;38.15;;;28.10;;
76053;SDS011;64752;48.870;9.082;2023-02-12T08:43:32;38.85;;;28.20;;
76053;SDS011;64752;48.870;9.082;2023-02-12T08:46:02;40.35;;;28.63;;
76053;SDS011;64752;48.870;9.082;2023-02-12T08:48:27;40.38;;;28.63;;
76053;SDS011;64752;48.870;9.082;2023-02-12T08:50:52;36.60;;;27.13;;
76053;SDS011;64752;48.870;9.082;2023-02-12T08:53:18;38.92;;;27.50;;
76053;SDS011;64752;48.870;9.082;2023-02-12T08:55:49;39.77;;;28.30;;
76053;SDS011;64752;48.870;9.082;2023-02-12T08:58:15;36.85;;;28.35;;
76053;SDS011;64752;48.870;9.082;2023-02-12T09:00:40;42.60;;;29.95;;
76053;SDS011;64752;48.870;9.082;2023-02-12T09:03:05;38.25;;;29.30;;
76053;SDS011;64752;48.870;9.082;2023-02-12T09:05:30;40.40;;;29.45;;
76053;SDS011;64752;48.870;9.082;2023-02-12T09:07:56;39.03;;;29.17;;
76053;SDS011;64752;48.870;9.082;2023-02-12T09:10:21;40.67;;;29.45;;
76053;SDS011;64752;48.870;9.082;2023-02-12T09:12:46;38.63;;;28.30;;
76053;SDS011;64752;48.870;9.082;2023-02-12T09:15:12;41.78;;;29.42;;
76053;SDS011;64752;48.870;9.082;2023-02-12T09:17:37;41.05;;;29.73;;
76053;SDS011;64752;48.870;9.082;2023-02-12T09:20:05;39.40;;;28.48;;
76053;SDS011;64752;48.870;9.082;2023-02-12T09:22:30;41.47;;;29.83;;
76053;SDS011;64752;48.870;9.082;2023-02-12T09:24:55;41.45;;;30.23;;
76053;SDS011;64752;48.870;9.082;2023-02-12T09:27:21;38.07;;;28.63;;
76053;SDS011;64752;48.870;9.082;2023-02-12T09:29:46;40.97;;;30.37;;
76053;SDS011;64752;48.870;9.082;2023-02-12T09:32:11;40.22;;;30.55;;
76053;SDS011;64752;48.870;9.082;2023-02-12T09:34:36;44.25;;;31.33;;
76053;SDS011;64752;48.870;9.082;2023-02-12T09:37:01;45.53;;;32.08;;
76053;SDS011;64752;48.870;9.082;2023-02-12T09:39:27;37.85;;;29.00;;
76053;SDS011;64752;48.870;9.082;2023-02-12T09:42:17;41.42;;;28.27;;
76053;SDS011;64752;48.870;9.082;2023-02-12T09:44:45;38.75;;;28.90;;
76053;SDS011;64752;48.870;9.082;2023-02-12T09:47:16;40.97;;;28.23;;
76053;SDS011;64752;48.870;9.082;2023-02-12T09:50:47;39.70;;;29.50;;
76053;SDS011;64752;48.870;9.082;2023-02-12T09:52:39;40.83;;;29.45;;
76053;SDS011;64752;48.870;9.082;2023-02-12T09:55:04;43.97;;;29.80;;
76053;SDS011;64752;48.870;9.082;2023-02-12T09:57:33;41.65;;;29.25;;
76053;SDS011;64752;48.870;9.082;2023-02-12T10:00:10;36.78;;;28.95;;
76053;SDS011;64752;48.870;9.082;2023-02-12T10:02:36;37.63;;;27.45;;
76053;SDS011;64752;48.870;9.082;2023-02-12T10:05:02;36.85;;;28.67;;
76053;SDS011;64752;48.870;9.082;2023-02-12T10:07:52;36.03;;;27.23;;
76053;SDS011;64752;48.870;9.082;2023-02-12T10:13:06;40.83;;;27.77;;
76053;SDS011;64752;48.870;9.082;2023-02-12T10:15:42;37.33;;;27.50;;
76053;SDS011;64752;48.870;9.082;2023-02-12T10:25:58;35.20;;;26.08;;
76053;SDS011;64752;48.870;9.082;2023-02-12T10:28:33;36.33;;;27.13;;
76053;SDS011;64752;48.870;9.082;2023-02-12T10:38:47;31.95;;;23.95;;
76053;SDS011;64752;48.870;9.082;2023-02-12T10:41:13;29.70;;;22.48;;
76053;SDS011;64752;48.870;9.082;2023-02-12T10:46:05;26.37;;;20.03;;
76053;SDS011;64752;48.870;9.082;2023-02-12T10:48:31;24.10;;;18.43;;
76053;SDS011;64752;48.870;9.082;2023-02-12T10:53:28;25.65;;;18.27;;
76053;SDS011;64752;48.870;9.082;2023-02-12T10:56:17;20.83;;;15.48;;
76053;SDS011;64752;48.870;9.082;2023-02-12T11:01:14;19.55;;;13.32;;
76053;SDS011;64752;48.870;9.082;2023-02-12T11:03:40;15.32;;;10.98;;
76053;SDS011;64752;48.870;9.082;2023-02-12T11:06:16;11.40;;;8.03;;
76053;SDS011;64752;48.870;9.082;2023-02-12T11:08:41;12.02;;;8.02;;
76053;SDS011;64752;48.870;9.082;2023-02-12T11:11:15;13.85;;;9.80;;
76053;SDS011;64752;48.870;9.082;2023-02-12T11:13:44;15.18;;;10.82;;
76053;SDS011;64752;48.870;9.082;2023-02-12T11:16:10;18.17;;;13.23;;
76053;SDS011;64752;48.870;9.082;2023-02-12T11:18:36;20.38;;;13.98;;
76053;SDS011;64752;48.870;9.082;2023-02-12T11:21:11;22.77;;;15.88;;
76053;SDS011;64752;48.870;9.082;2023-02-12T11:23:41;24.70;;;15.45;;
76053;SDS011;64752;48.870;9.082;2023-02-12T11:28:54;21.73;;;15.45;;
76053;SDS011;64752;48.870;9.082;2023-02-12T11:36:48;25.58;;;16.35;;
76053;SDS011;64752;48.870;9.082;2023-02-12T11:39:16;22.27;;;15.98;;
76053;SDS011;64752;48.870;9.082;2023-02-12T11:41:42;22.55;;;15.45;;
76053;SDS011;64752;48.870;9.082;2023-02-12T11:44:09;16.13;;;12.10;;
76053;SDS011;64752;48.870;9.082;2023-02-12T11:46:36;16.15;;;12.05;;
76053;SDS011;64752;48.870;9.082;2023-02-12T11:49:02;15.20;;;12.02;;
76053;SDS011;64752;48.870;9.082;2023-02-12T11:51:29;17.67;;;13.05;;
76053;SDS011;64752;48.870;9.082;2023-02-12T11:53:57;15.57;;;10.93;;
76053;SDS011;64752;48.870;9.082;2023-02-12T11:56:23;14.00;;;10.13;;
76053;SDS011;64752;48.870;9.082;2023-02-12T11:58:50;14.65;;;9.25;;
76053;SDS011;64752;48.870;9.082;2023-02-12T12:06:31;12.80;;;8.90;;
76053;SDS011;64752;48.870;9.082;2023-02-12T12:09:10;12.10;;;8.07;;
76053;SDS011;64752;48.870;9.082;2023-02-12T12:14:08;9.27;;;6.55;;
76053;SDS011;64752;48.870;9.082;2023-02-12T12:16:39;10.13;;;6.93;;
76053;SDS011;64752;48.870;9.082;2023-02-12T12:19:29;9.02;;;6.25;;
76053;SDS011;64752;48.870;9.082;2023-02-12T12:22:25;8.30;;;4.78;;
76053;SDS011;64752;48.870;9.082;2023-02-12T12:24:57;6.45;;;4.22;;
76053;SDS011;64752;48.870;9.082;2023-02-12T12:30:23;4.68;;;3.30;;
76053;SDS011;64752;48.870;9.082;2023-02-12T12:32:51;5.88;;;3.88;;
76053;SDS011;64752;48.870;9.082;2023-02-12T12:35:21;5.78;;;3.83;;
76053;SDS011;64752;48.870;9.082;2023-02-12T12:38:06;6.10;;;4.00;;
76053;SDS011;64752;48.870;9.082;2023-02-12T12:40:40;5.28;;;3.45;;
76053;SDS011;64752;48.870;9.082;2023-02-12T12:43:17;6.43;;;3.67;;
76053;SDS011;64752;48.870;9.082;2023-02-12T12:59:03;5.93;;;3.85;;
76053;SDS011;64752;48.870;9.082;2023-02-12T13:09:44;6.82;;;3.85;;
76053;SDS011;64752;48.870;9.082;2023-02-12T13:17:56;5.63;;;3.72;;
76053;SDS011;64752;48.870;9.082;2023-02-12T13:27:31;5.15;;;3.63;;
76053;SDS011;64752;48.870;9.082;2023-02-12T13:32:28;5.47;;;3.70;;
76053;SDS011;64752;48.870;9.082;2023-02-12T13:34:54;6.18;;;3.80;;
76053;SDS011;64752;48.870;9.082;2023-02-12T13:39:57;5.50;;;3.72;;
76053;SDS011;64752;48.870;9.082;2023-02-12T13:47:34;7.20;;;4.13;;
76053;SDS011;64752;48.870;9.082;2023-02-12T13:50:05;6.40;;;3.80;;
76053;SDS011;64752;48.870;9.082;2023-02-12T13:57:59;5.90;;;4.05;;
76053;SDS011;64752;48.870;9.082;2023-02-12T14:03:17;6.20;;;3.97;;
76053;SDS011;64752;48.870;9.082;2023-02-12T14:05:47;7.32;;;4.13;;
76053;SDS011;64752;48.870;9.082;2023-02-12T14:08:25;6.27;;;4.47;;
76053;SDS011;64752;48.870;9.082;2023-02-12T14:11:02;7.00;;;4.38;;
76053;SDS011;64752;48.870;9.082;2023-02-12T14:13:27;7.55;;;4.15;;
76053;SDS011;64752;48.870;9.082;2023-02-12T14:15:58;6.43;;;4.13;;
76053;SDS011;64752;48.870;9.082;2023-02-12T14:18:41;6.78;;;4.35;;
76053;SDS011;64752;48.870;9.082;2023-02-12T14:23:32;7.67;;;4.27;;
76053;SDS011;64752;48.870;9.082;2023-02-12T14:28:25;6.97;;;4.53;;
76053;SDS011;64752;48.870;9.082;2023-02-12T14:33:37;8.23;;;4.68;;
76053;SDS011;64752;48.870;9.082;2023-02-12T14:46:45;7.78;;;4.40;;
76053;SDS011;64752;48.870;9.082;2023-02-12T14:51:51;6.70;;;4.13;;
76053;SDS011;64752;48.870;9.082;2023-02-12T14:54:20;5.82;;;3.60;;
76053;SDS011;64752;48.870;9.082;2023-02-12T14:56:51;7.00;;;3.92;;
76053;SDS011;64752;48.870;9.082;2023-02-12T14:59:18;5.15;;;3.38;;
76053;SDS011;64752;48.870;9.082;2023-02-12T15:01:44;5.20;;;3.60;;
76053;SDS011;64752;48.870;9.082;2023-02-12T15:04:20;5.88;;;3.38;;
76053;SDS011;64752;48.870;9.082;2023-02-12T15:06:49;6.13;;;3.47;;
76053;SDS011;64752;48.870;9.082;2023-02-12T15:09:18;4.28;;;3.00;;
76053;SDS011;64752;48.870;9.082;2023-02-12T15:11:46;7.22;;;2.88;;
76053;SDS011;64752;48.870;9.082;2023-02-12T15:16:48;5.85;;;3.45;;
76053;SDS011;64752;48.870;9.082;2023-02-12T15:21:40;4.15;;;2.63;;
76053;SDS011;64752;48.870;9.082;2023-02-12T15:24:10;3.50;;;2.50;;
76053;SDS011;64752;48.870;9.082;2023-02-12T15:26:42;3.08;;;2.00;;
76053;SDS011;64752;48.870;9.082;2023-02-12T15:29:24;3.85;;;2.53;;
76053;SDS011;64752;48.870;9.082;2023-02-12T15:31:57;3.58;;;2.20;;
76053;SDS011;64752;48.870;9.082;2023-02-12T15:34:24;3.45;;;2.38;;
76053;SDS011;64752;48.870;9.082;2023-02-12T15:36:51;3.60;;;2.55;;
76053;SDS011;64752;48.870;9.082;2023-02-12T15:39:17;3.25;;;2.55;;
76053;SDS011;64752;48.870;9.082;2023-02-12T15:41:44;3.58;;;2.40;;
76053;SDS011;64752;48.870;9.082;2023-02-12T15:44:18;5.38;;;3.00;;
76053;SDS011;64752;48.870;9.082;2023-02-12T15:49:18;4.40;;;2.70;;
76053;SDS011;64752;48.870;9.082;2023-02-12T15:51:43;4.00;;;2.47;;
76053;SDS011;64752;48.870;9.082;2023-02-12T15:54:10;4.07;;;3.05;;
76053;SDS011;64752;48.870;9.082;2023-02-12T15:56:38;4.97;;;3.00;;
76053;SDS011;64752;48.870;9.082;2023-02-12T15:59:04;4.82;;;2.95;;
76053;SDS011;64752;48.870;9.082;2023-02-12T16:01:30;5.00;;;3.22;;
76053;SDS011;64752;48.870;9.082;2023-02-12T16:03:57;4.40;;;2.90;;
76053;SDS011;64752;48.870;9.082;2023-02-12T16:06:23;3.28;;;2.33;;
76053;SDS011;64752;48.870;9.082;2023-02-12T16:08:50;4.90;;;2.85;;
76053;SDS011;64752;48.870;9.082;2023-02-12T16:11:17;4.13;;;2.85;;
76053;SDS011;64752;48.870;9.082;2023-02-12T16:18:46;5.07;;;3.40;;
76053;SDS011;64752;48.870;9.082;2023-02-12T16:21:26;5.72;;;3.30;;
76053;SDS011;64752;48.870;9.082;2023-02-12T16:23:52;8.68;;;3.85;;
76053;SDS011;64752;48.870;9.082;2023-02-12T16:26:18;5.05;;;2.83;;
76053;SDS011;64752;48.870;9.082;2023-02-12T16:31:10;21.00;;;10.80;;
76053;SDS011;64752;48.870;9.082;2023-02-12T16:38:56;7.43;;;4.10;;
76053;SDS011;64752;48.870;9.082;2023-02-12T16:41:23;7.13;;;4.75;;
76053;SDS011;64752;48.870;9.082;2023-02-12T16:43:50;6.90;;;4.88;;
76053;SDS011;64752;48.870;9.082;2023-02-12T16:46:16;6.88;;;4.85;;
76053;SDS011;64752;48.870;9.082;2023-02-12T16:48:42;8.50;;;5.85;;
76053;SDS011;64752;48.870;9.082;2023-02-12T16:51:27;10.30;;;6.28;;
76053;SDS011;64752;48.870;9.082;2023-02-12T16:53:54;9.10;;;5.70;;
76053;SDS011;64752;48.870;9.082;2023-02-12T16:56:21;9.45;;;6.38;;
76053;SDS011;64752;48.870;9.082;2023-02-12T16:58:48;13.80;;;9.20;;
76053;SDS011;64752;48.870;9.082;2023-02-12T17:01:15;19.20;;;11.32;;
76053;SDS011;64752;48.870;9.082;2023-02-12T17:03:42;10.90;;;5.68;;
76053;SDS011;64752;48.870;9.082;2023-02-12T17:06:09;8.10;;;4.80;;
76053;SDS011;64752;48.870;9.082;2023-02-12T17:08:35;8.10;;;5.90;;
76053;SDS011;64752;48.870;9.082;2023-02-12T17:11:00;9.87;;;6.33;;
76053;SDS011;64752;48.870;9.082;2023-02-12T17:13:25;8.57;;;4.90;;
76053;SDS011;64752;48.870;9.082;2023-02-12T17:15:52;9.20;;;4.72;;
76053;SDS011;64752;48.870;9.082;2023-02-12T17:18:18;7.82;;;4.97;;
76053;SDS011;64752;48.870;9.082;2023-02-12T17:20:44;8.95;;;5.10;;
76053;SDS011;64752;48.870;9.082;2023-02-12T17:23:11;6.95;;;4.55;;
76053;SDS011;64752;48.870;9.082;2023-02-12T17:25:36;7.80;;;5.28;;
76053;SDS011;64752;48.870;9.082;2023-02-12T17:28:02;7.22;;;4.60;;
76053;SDS011;64752;48.870;9.082;2023-02-12T17:30:27;8.77;;;5.35;;
76053;SDS011;64752;48.870;9.082;2023-02-12T17:32:53;17.23;;;11.32;;
76053;SDS011;64752;48.870;9.082;2023-02-12T17:35:19;10.60;;;6.78;;
76053;SDS011;64752;48.870;9.082;2023-02-12T17:37:44;10.70;;;6.20;;
76053;SDS011;64752;48.870;9.082;2023-02-12T17:40:09;7.93;;;5.60;;
76053;SDS011;64752;48.870;9.082;2023-02-12T17:42:38;10.27;;;5.93;;